LRAR
Conditii: VFR
METAR: LRAR 171500Z 33005KT 290V360 CAVOK 26/11 Q1011
LRBC
Conditii: VFR
METAR: LRBC 171500Z VRB02KT 9999 SCT065 27/15 Q1007
LRBM
Conditii: VFR
METAR: LRBM 171500Z 28010KT 260V330 9999 FEW045 24/07 Q1010
LRBS
Conditii: VFR
METAR: LRBS 171500Z 28006KT 250V320 CAVOK 28/12 Q1008 NOSIG
LRCK
Conditii: VFR
METAR: LRCK 171500Z 13010KT CAVOK 25/14 Q1008 NOSIG
LRCL
Conditii: VFR
METAR: LRCL 171500Z 33009KT 9999 FEW060 25/08 Q1010
LRCV
Conditii: VFR
METAR: LRCV 171500Z 24009KT CAVOK 28/09 Q1009
LRIA
Conditii: VFR
METAR: LRIA 171500Z 36006KT 330V040 CAVOK 24/11 Q1009
LROD
Conditii: VFR
METAR: LROD 171500Z 33008KT 300V360 CAVOK 25/09 Q1011
LROP
Conditii: VFR
METAR: LROP 171500Z 29010KT CAVOK 27/12 Q1008 NOSIG
LRSB
Conditii: VFR
METAR: LRSB 171500Z 30017KT 9999 SCT045 25/08 Q1010
LRSM
Conditii: VFR
METAR: LRSM 171500Z 32009KT 290V030 CAVOK 26/09 Q1010
LRSV
Conditii: VFR
METAR: LRSV 171500Z 35005KT 300V020 9999 SCT035 21/12 Q1010
LRTM
Conditii: VFR
METAR: LRTM 171500Z 31010KT 260V350 9999 FEW046 26/11 Q1009
LRTR
Conditii: VFR
METAR: LRTR 171500Z 33010KT 300V360 CAVOK 26/10 Q1011
LRTC
Conditii: VFR
METAR: LRTC 171500Z 17010KT CAVOK 27/09 Q1007